createdAt,value
2018-03-24T00:00:53.367Z,42.50
2018-03-24T00:03:19.737Z,54.00
2018-03-24T00:05:45.925Z,46.63
2018-03-24T00:08:12.237Z,48.43
2018-03-24T00:10:38.411Z,44.73
2018-03-24T00:13:04.684Z,43.40
2018-03-24T00:15:31.339Z,46.03
2018-03-24T00:17:57.601Z,48.43
2018-03-24T00:20:23.802Z,47.33
2018-03-24T00:22:50.733Z,53.73
2018-03-24T00:25:16.975Z,47.57
2018-03-24T00:27:43.255Z,52.10
2018-03-24T00:30:09.730Z,47.20
2018-03-24T00:32:35.995Z,47.37
2018-03-24T00:35:02.221Z,48.93
2018-03-24T00:37:28.504Z,44.70
2018-03-24T00:39:55.465Z,52.03
2018-03-24T00:42:22.474Z,53.63
2018-03-24T00:44:48.710Z,56.47
2018-03-24T00:47:14.955Z,55.40
2018-03-24T00:49:41.237Z,48.57
2018-03-24T00:52:08.212Z,58.50
2018-03-24T00:54:34.489Z,60.83
2018-03-24T00:57:00.966Z,60.50
2018-03-24T00:59:27.277Z,58.50
2018-03-24T01:01:53.468Z,59.83
2018-03-24T01:04:19.744Z,59.80
2018-03-24T01:06:45.957Z,56.63
2018-03-24T01:09:12.967Z,61.53
2018-03-24T01:11:39.216Z,61.10
2018-03-24T01:14:06.498Z,52.70
2018-03-24T01:16:33.692Z,67.37
2018-03-24T01:19:00.962Z,55.53
2018-03-24T01:21:27.189Z,61.03
2018-03-24T01:23:53.505Z,61.73
2018-03-24T01:26:19.747Z,55.60
2018-03-24T01:28:46.104Z,58.20
2018-03-24T01:31:12.532Z,53.90
2018-03-24T01:33:38.775Z,49.87
2018-03-24T01:36:06.040Z,47.77
2018-03-24T01:38:32.332Z,45.53
2018-03-24T01:40:58.827Z,50.50
2018-03-24T01:43:25.057Z,49.87
2018-03-24T01:45:51.281Z,50.83
2018-03-24T01:48:17.698Z,53.00
2018-03-24T01:50:43.966Z,50.63
2018-03-24T01:53:10.153Z,52.13
2018-03-24T01:55:36.353Z,46.83
2018-03-24T01:58:02.603Z,53.20
2018-03-24T02:00:28.768Z,47.90
2018-03-24T02:02:54.978Z,73.90
2018-03-24T02:05:21.221Z,50.43
2018-03-24T02:07:47.642Z,52.27
2018-03-24T02:10:14.016Z,50.40
2018-03-24T02:12:40.260Z,50.47
2018-03-24T02:15:06.556Z,52.20
2018-03-24T02:17:33.592Z,56.03
2018-03-24T02:19:59.868Z,51.43
2018-03-24T02:22:26.113Z,48.30
2018-03-24T02:24:53.316Z,46.13
2018-03-24T02:27:19.679Z,51.10
2018-03-24T02:29:45.980Z,48.80
2018-03-24T02:32:12.256Z,48.13
2018-03-24T02:34:38.607Z,42.40
2018-03-24T02:37:05.113Z,41.33
2018-03-24T02:39:31.518Z,40.97
2018-03-24T02:41:57.780Z,49.27
2018-03-24T02:44:24.762Z,52.30
2018-03-24T02:46:51.026Z,46.60
2018-03-24T02:49:17.312Z,46.77
2018-03-24T02:51:44.270Z,50.63
2018-03-24T02:54:10.545Z,52.17
2018-03-24T02:56:37.045Z,44.30
2018-03-24T02:59:03.529Z,42.73
2018-03-24T03:01:30.004Z,48.77
2018-03-24T03:03:56.274Z,49.07
2018-03-24T03:06:22.632Z,45.43
2018-03-24T03:08:48.912Z,47.10
2018-03-24T03:11:15.221Z,43.67
2018-03-24T03:13:41.550Z,46.07
2018-03-24T03:16:07.881Z,46.03
2018-03-24T03:18:34.253Z,47.33
2018-03-24T03:21:00.557Z,41.77
2018-03-24T03:23:26.780Z,41.67
2018-03-24T03:25:53.046Z,47.27
2018-03-24T03:28:19.306Z,52.17
2018-03-24T03:44:35.007Z,44.70
2018-03-24T03:47:01.284Z,40.43
2018-03-24T03:49:27.587Z,54.13
2018-03-24T03:51:54.557Z,44.47
2018-03-24T03:54:20.976Z,42.70
2018-03-24T03:56:47.254Z,48.93
2018-03-24T03:59:13.446Z,44.20
2018-03-24T04:01:40.503Z,45.07
2018-03-24T04:04:06.815Z,49.60
2018-03-24T04:06:33.061Z,44.50
2018-03-24T04:08:59.336Z,47.20
2018-03-24T04:11:25.610Z,48.97
2018-03-24T04:13:51.874Z,46.10
2018-03-24T04:16:18.148Z,55.83
2018-03-24T04:18:44.557Z,53.80
2018-03-24T04:21:11.842Z,68.10
2018-03-24T04:23:38.086Z,67.80
2018-03-24T04:26:04.416Z,97.00
2018-03-24T04:28:30.747Z,73.60
2018-03-24T04:30:57.001Z,91.70
2018-03-24T04:33:23.222Z,78.10
2018-03-24T04:35:49.849Z,110.03
2018-03-24T04:38:16.122Z,84.30
2018-03-24T04:40:42.553Z,148.93
2018-03-24T04:43:09.570Z,79.33
2018-03-24T04:45:35.802Z,122.40
2018-03-24T04:48:02.035Z,147.87
2018-03-24T04:50:29.380Z,93.53
2018-03-24T04:52:55.646Z,193.27
2018-03-24T04:55:21.922Z,139.70
2018-03-24T04:57:49.919Z,98.80
2018-03-24T05:00:16.150Z,177.87
2018-03-24T05:02:43.117Z,147.60
2018-03-24T05:05:10.195Z,96.67
2018-03-24T05:07:36.484Z,85.73
2018-03-24T05:10:02.798Z,104.47
2018-03-24T05:12:29.184Z,90.90
2018-03-24T05:14:56.206Z,90.70
2018-03-24T05:17:22.462Z,70.73
2018-03-24T05:19:48.693Z,72.13
2018-03-24T05:22:15.976Z,74.37
2018-03-24T05:24:42.250Z,68.27
2018-03-24T05:27:09.255Z,88.47
2018-03-24T05:29:35.475Z,87.33
2018-03-24T05:32:01.784Z,72.00
2018-03-24T05:34:28.816Z,55.37
2018-03-24T05:36:55.101Z,63.97
2018-03-24T05:39:21.328Z,70.10
2018-03-24T05:41:47.508Z,94.97
2018-03-24T05:44:13.768Z,91.97
2018-03-24T05:46:39.998Z,91.30
2018-03-24T05:49:06.424Z,61.03
2018-03-24T05:51:32.675Z,86.37
2018-03-24T05:53:59.599Z,109.93
2018-03-24T05:56:25.933Z,70.53
2018-03-24T05:58:52.912Z,78.37
2018-03-24T06:01:19.166Z,61.37
2018-03-24T06:03:45.398Z,59.83
2018-03-24T06:06:11.666Z,57.77
2018-03-24T06:08:38.015Z,56.00
2018-03-24T06:11:04.280Z,61.50
2018-03-24T06:13:30.610Z,58.43
2018-03-24T06:15:57.087Z,55.30
2018-03-24T06:18:24.105Z,51.97
2018-03-24T06:20:50.390Z,55.40
2018-03-24T06:23:17.378Z,58.10
2018-03-24T06:25:43.682Z,54.90
2018-03-24T06:28:09.946Z,59.67
2018-03-24T06:30:36.286Z,55.60
2018-03-24T06:33:02.562Z,58.17
2018-03-24T06:35:29.036Z,56.00
2018-03-24T06:37:55.464Z,50.90
2018-03-24T06:40:26.484Z,53.10
2018-03-24T06:42:52.845Z,48.50
2018-03-24T06:45:19.138Z,53.00
2018-03-24T06:47:46.326Z,53.40
2018-03-24T06:50:14.374Z,49.47
2018-03-24T06:52:41.071Z,62.97
2018-03-24T06:55:08.671Z,54.63
2018-03-24T06:57:34.925Z,60.10
2018-03-24T07:00:01.303Z,63.97
2018-03-24T07:02:27.575Z,65.10
2018-03-24T07:04:53.815Z,60.00
2018-03-24T07:07:20.099Z,66.37
2018-03-24T07:09:46.346Z,56.37
2018-03-24T07:12:12.661Z,50.60
2018-03-24T07:14:38.912Z,56.43
2018-03-24T07:17:05.281Z,57.93
2018-03-24T07:19:31.512Z,59.10
2018-03-24T07:21:57.852Z,61.50
2018-03-24T07:24:24.288Z,67.23
2018-03-24T07:26:50.659Z,77.17
2018-03-24T07:29:17.088Z,78.87
2018-03-24T07:31:43.282Z,69.50
2018-03-24T07:34:10.239Z,71.70
2018-03-24T07:36:37.205Z,68.53
2018-03-24T07:39:03.497Z,62.10
2018-03-24T07:41:29.810Z,63.90
2018-03-24T07:43:56.121Z,63.30
2018-03-24T07:46:23.191Z,63.43
2018-03-24T07:48:49.501Z,67.40
2018-03-24T07:51:15.799Z,61.20
2018-03-24T07:53:43.304Z,67.53
2018-03-24T07:56:09.740Z,60.70
2018-03-24T07:58:36.845Z,66.37
2018-03-24T08:01:03.246Z,64.23
2018-03-24T08:03:29.733Z,61.10
2018-03-24T08:05:56.390Z,68.83
2018-03-24T08:08:29.679Z,66.70
2018-03-24T08:10:56.203Z,68.87
2018-03-24T08:13:22.634Z,68.20
2018-03-24T08:15:51.832Z,72.60
2018-03-24T08:18:18.529Z,61.77
2018-03-24T08:20:46.231Z,63.63
2018-03-24T08:23:12.730Z,61.90
2018-03-24T08:25:39.441Z,64.90
2018-03-24T08:28:05.726Z,60.10
2018-03-24T08:30:32.050Z,65.10
2018-03-24T08:32:58.340Z,64.53
2018-03-24T08:35:25.882Z,55.77
2018-03-24T08:37:52.821Z,64.30
2018-03-24T08:40:19.266Z,59.90
2018-03-24T08:42:45.642Z,56.37
2018-03-24T08:45:11.996Z,54.83
2018-03-24T08:47:38.348Z,54.57
2018-03-24T08:50:04.669Z,52.37
2018-03-24T08:52:30.913Z,52.60
2018-03-24T08:54:57.301Z,50.87
2018-03-24T08:57:34.090Z,52.27
2018-03-24T09:00:00.431Z,48.77
2018-03-24T09:02:30.802Z,48.30
2018-03-24T09:04:59.702Z,44.87
2018-03-24T09:07:29.554Z,46.43
2018-03-24T09:09:59.888Z,44.90
2018-03-24T09:12:28.333Z,43.17
2018-03-24T09:14:55.163Z,40.93
2018-03-24T09:17:30.627Z,46.50
2018-03-24T09:19:58.074Z,45.27
2018-03-24T09:22:29.474Z,39.60
2018-03-24T09:25:00.574Z,42.33
2018-03-24T09:27:30.281Z,36.00
2018-03-24T09:30:03.588Z,38.17
2018-03-24T09:32:29.992Z,38.43
2018-03-24T09:35:00.386Z,42.13
2018-03-24T09:37:30.905Z,40.27
2018-03-24T09:42:59.871Z,34.77
2018-03-24T09:45:26.366Z,32.63
2018-03-24T09:47:52.605Z,33.13
2018-03-24T09:50:18.898Z,30.60
2018-03-24T09:52:45.885Z,27.57
2018-03-24T09:55:12.157Z,41.40
2018-03-24T09:57:38.557Z,33.03
2018-03-24T10:00:07.142Z,35.27
2018-03-24T10:02:33.565Z,29.70
2018-03-24T10:05:00.829Z,27.50
2018-03-24T10:07:28.771Z,28.17
2018-03-24T10:09:55.587Z,25.37
2018-03-24T10:12:22.155Z,25.43
2018-03-24T10:14:50.697Z,24.83
2018-03-24T10:17:17.022Z,30.17
2018-03-24T10:19:44.292Z,23.10
2018-03-24T10:27:57.545Z,14.30
2018-03-24T10:30:24.109Z,11.30
2018-03-24T10:32:51.360Z,17.07
2018-03-24T10:35:19.059Z,13.70
2018-03-24T10:37:51.624Z,15.47
2018-03-24T10:40:27.573Z,16.97
2018-03-24T10:43:02.741Z,19.20
2018-03-24T10:45:29.000Z,20.30
2018-03-24T10:47:55.745Z,21.73
2018-03-24T10:50:22.477Z,18.30
2018-03-24T10:52:49.172Z,20.73
2018-03-24T10:55:15.437Z,19.20
2018-03-24T10:57:42.309Z,14.63
2018-03-24T11:00:08.617Z,22.57
2018-03-24T11:02:35.089Z,21.10
2018-03-24T11:05:02.124Z,20.33
2018-03-24T11:07:28.982Z,24.20
2018-03-24T11:09:55.213Z,19.90
2018-03-24T11:12:21.648Z,23.47
2018-03-24T11:14:48.764Z,19.67
2018-03-24T11:17:15.236Z,24.17
2018-03-24T11:19:42.357Z,25.23
2018-03-24T11:22:08.649Z,20.03
2018-03-24T11:24:34.883Z,19.47
2018-03-24T11:27:01.184Z,20.23
2018-03-24T11:29:27.433Z,16.60
2018-03-24T11:31:53.728Z,19.70
2018-03-24T11:34:19.996Z,15.70
2018-03-24T11:36:46.614Z,17.00
2018-03-24T11:39:12.878Z,19.40
2018-03-24T11:41:39.189Z,21.70
2018-03-24T11:44:05.430Z,17.30
2018-03-24T11:46:32.596Z,19.77
2018-03-24T11:48:59.081Z,17.47
2018-03-24T11:51:25.309Z,17.10
2018-03-24T11:53:51.771Z,17.67
2018-03-24T11:56:18.102Z,15.43
2018-03-24T11:58:44.677Z,13.57
2018-03-24T12:01:11.200Z,15.93
2018-03-24T12:03:37.560Z,16.97
2018-03-24T12:06:04.012Z,17.27
2018-03-24T12:08:30.243Z,18.03
2018-03-24T12:10:56.593Z,14.90
2018-03-24T12:13:22.853Z,13.77
2018-03-24T12:15:49.046Z,15.10
2018-03-24T12:18:15.348Z,13.47
2018-03-24T12:20:41.569Z,14.40
2018-03-24T12:23:07.959Z,17.80
2018-03-24T12:25:34.294Z,16.77
2018-03-24T12:28:00.537Z,27.97
2018-03-24T12:30:26.751Z,16.27
2018-03-24T12:32:53.041Z,22.13
2018-03-24T12:35:19.240Z,19.63
2018-03-24T12:37:45.524Z,27.77
2018-03-24T12:40:11.828Z,15.80
2018-03-24T12:42:38.114Z,30.77
2018-03-24T12:45:04.491Z,12.37
2018-03-24T12:47:30.774Z,35.40
2018-03-24T12:49:57.029Z,15.13
2018-03-24T12:52:23.318Z,30.80
2018-03-24T12:54:49.572Z,24.20
2018-03-24T12:57:15.884Z,28.00
2018-03-24T12:59:42.641Z,29.23
2018-03-24T13:02:09.149Z,31.40
2018-03-24T13:04:36.204Z,35.20
2018-03-24T13:07:02.427Z,61.40
2018-03-24T13:09:29.112Z,118.97
2018-03-24T13:12:03.215Z,23.70
2018-03-24T13:14:29.763Z,14.97
2018-03-24T13:16:55.977Z,29.70
2018-03-24T13:19:22.198Z,71.27
2018-03-24T13:21:48.655Z,59.80
2018-03-24T13:24:15.033Z,31.03
2018-03-24T13:26:42.119Z,30.73
2018-03-24T13:29:08.399Z,20.43
2018-03-24T13:31:34.978Z,14.97
2018-03-24T13:34:02.073Z,54.33
2018-03-24T13:36:28.341Z,16.77
2018-03-24T13:38:54.620Z,15.90
2018-03-24T13:41:21.549Z,18.20
2018-03-24T13:43:48.235Z,13.80
2018-03-24T13:46:14.663Z,22.87
2018-03-24T13:48:42.050Z,15.80
2018-03-24T13:51:09.168Z,21.07
2018-03-24T13:53:35.573Z,17.80
2018-03-24T13:56:01.934Z,13.00
2018-03-24T13:58:28.261Z,13.67
2018-03-24T14:00:54.571Z,14.97
2018-03-24T14:03:20.823Z,19.03
2018-03-24T14:05:47.356Z,16.87
2018-03-24T14:08:13.795Z,17.00
2018-03-24T14:10:40.120Z,20.27
2018-03-24T14:13:06.401Z,21.00
2018-03-24T14:15:32.588Z,16.67
2018-03-24T14:17:58.989Z,22.03
2018-03-24T14:20:25.990Z,22.57
2018-03-24T14:22:52.307Z,17.20
2018-03-24T14:25:19.377Z,24.73
2018-03-24T14:27:45.601Z,18.43
2018-03-24T14:30:12.054Z,15.00
2018-03-24T14:32:39.144Z,15.90
2018-03-24T14:35:06.117Z,19.50
2018-03-24T14:37:32.380Z,19.83
2018-03-24T14:39:59.320Z,23.33
2018-03-24T14:42:27.054Z,17.10
2018-03-24T14:44:53.359Z,15.00
2018-03-24T14:47:19.674Z,17.53
2018-03-24T14:49:45.918Z,32.83
2018-03-24T14:52:12.849Z,17.00
2018-03-24T14:54:39.097Z,16.30
2018-03-24T14:57:05.895Z,23.03
2018-03-24T14:59:32.517Z,14.83
2018-03-24T15:01:58.866Z,17.67
2018-03-24T15:04:25.291Z,19.25
2018-03-24T15:06:51.560Z,15.60
2018-03-24T15:09:17.851Z,18.47
2018-03-24T15:11:44.124Z,16.57
2018-03-24T15:14:10.385Z,15.77
2018-03-24T15:16:36.737Z,18.60
2018-03-24T15:19:02.948Z,19.30
2018-03-24T15:21:29.956Z,18.97
2018-03-24T15:23:58.004Z,18.97
2018-03-24T15:26:24.345Z,62.77
2018-03-24T15:29:02.912Z,31.70
2018-03-24T15:31:43.676Z,23.87
2018-03-24T15:34:22.137Z,16.23
2018-03-24T15:36:48.524Z,19.40
2018-03-24T15:39:16.000Z,19.77
2018-03-24T15:41:42.811Z,15.43
2018-03-24T15:44:09.946Z,16.63
2018-03-24T15:46:36.446Z,16.40
2018-03-24T15:49:03.055Z,20.20
2018-03-24T15:51:29.281Z,18.40
2018-03-24T15:53:57.739Z,15.87
2018-03-24T15:56:24.007Z,25.13
2018-03-24T15:58:50.316Z,18.70
2018-03-24T16:03:59.986Z,17.33
2018-03-24T16:06:31.736Z,20.70
2018-03-24T16:09:01.646Z,18.90
2018-03-24T16:11:28.258Z,41.60
2018-03-24T16:14:01.083Z,26.57
2018-03-24T16:16:27.421Z,20.70
2018-03-24T16:21:54.054Z,17.20
2018-03-24T16:24:22.615Z,20.53
2018-03-24T16:26:48.991Z,17.40
2018-03-24T16:32:24.203Z,20.03
2018-03-24T16:34:50.608Z,18.20
2018-03-24T16:37:16.886Z,18.83
2018-03-24T16:39:43.128Z,19.23
2018-03-24T16:42:09.606Z,20.80
2018-03-24T16:44:36.039Z,18.63
2018-03-24T16:47:02.449Z,20.67
2018-03-24T16:52:31.389Z,27.57
2018-03-24T16:55:00.919Z,109.27
2018-03-24T16:57:27.327Z,64.87
2018-03-24T16:59:53.685Z,46.30
2018-03-24T17:02:47.780Z,27.60
2018-03-24T17:05:14.222Z,23.87
2018-03-24T17:07:40.534Z,23.77
2018-03-24T17:10:07.600Z,46.60
2018-03-24T17:12:34.040Z,34.50
2018-03-24T17:15:00.572Z,25.60
2018-03-24T17:17:26.951Z,26.00
2018-03-24T17:19:53.779Z,23.87
2018-03-24T17:22:20.022Z,42.90
2018-03-24T17:24:47.000Z,24.90
2018-03-24T17:27:13.274Z,43.63
2018-03-24T17:29:39.583Z,35.90
2018-03-24T17:32:06.587Z,24.53
2018-03-24T17:34:33.954Z,23.03
2018-03-24T17:37:00.323Z,27.50
2018-03-24T17:39:26.589Z,24.07
2018-03-24T17:41:52.975Z,26.83
2018-03-24T17:44:19.244Z,26.77
2018-03-24T17:46:45.505Z,24.83
2018-03-24T17:49:11.948Z,24.17
2018-03-24T17:51:38.302Z,27.40
2018-03-24T17:54:04.995Z,27.60
2018-03-24T17:56:31.318Z,32.23
2018-03-24T17:58:57.619Z,27.43
2018-03-24T18:01:23.905Z,34.10
2018-03-24T18:03:54.091Z,28.70
2018-03-24T18:06:20.422Z,27.53
2018-03-24T18:08:46.740Z,23.70
2018-03-24T18:11:13.023Z,27.70
2018-03-24T18:13:39.351Z,26.87
2018-03-24T18:16:05.673Z,79.17
2018-03-24T18:18:32.701Z,78.23
2018-03-24T18:20:59.074Z,49.03
2018-03-24T18:23:25.586Z,49.30
2018-03-24T18:25:51.903Z,24.87
2018-03-24T18:28:18.238Z,26.33
2018-03-24T18:30:44.519Z,26.93
2018-03-24T18:33:11.449Z,17.30
2018-03-24T18:35:42.342Z,15.20
2018-03-24T18:38:08.779Z,18.10
2018-03-24T18:40:35.435Z,16.90
2018-03-24T18:43:01.969Z,16.60
2018-03-24T18:45:28.223Z,14.47
2018-03-24T18:48:00.289Z,15.70
2018-03-24T18:50:26.791Z,14.70
2018-03-24T18:52:53.259Z,17.80
2018-03-24T18:55:19.619Z,16.70
2018-03-24T18:57:46.148Z,15.00
2018-03-24T19:00:12.452Z,17.47
2018-03-24T19:02:38.696Z,16.07
2018-03-24T19:05:05.108Z,15.50
2018-03-24T19:07:32.127Z,18.33
2018-03-24T19:09:58.807Z,17.67
2018-03-24T19:12:25.282Z,18.53
2018-03-24T19:14:52.884Z,17.17
2018-03-24T19:17:19.444Z,18.20
2018-03-24T19:19:46.113Z,16.47
2018-03-24T19:22:13.164Z,23.13
2018-03-24T19:24:39.565Z,16.70
2018-03-24T19:27:06.154Z,16.53
2018-03-24T19:29:32.434Z,16.60
2018-03-24T19:31:58.887Z,16.93
2018-03-24T19:34:26.096Z,15.20
2018-03-24T19:36:52.464Z,17.23
2018-03-24T19:39:19.120Z,24.33
2018-03-24T19:41:45.442Z,16.60
2018-03-24T19:44:19.964Z,17.00
2018-03-24T19:46:46.223Z,16.33
2018-03-24T19:49:12.577Z,24.37
2018-03-24T19:51:38.824Z,15.30
2018-03-24T19:54:05.232Z,17.33
2018-03-24T19:56:31.537Z,19.27
2018-03-24T19:59:03.484Z,16.07
2018-03-24T20:01:29.849Z,19.23
2018-03-24T20:03:56.096Z,15.73
2018-03-24T20:06:22.302Z,17.67
2018-03-24T20:08:50.354Z,13.20
2018-03-24T20:11:17.631Z,16.80
2018-03-24T20:13:44.292Z,20.20
2018-03-24T20:16:10.729Z,23.60
2018-03-24T20:18:37.034Z,13.70
2018-03-24T20:21:03.404Z,16.37
2018-03-24T20:23:29.803Z,14.20
2018-03-24T20:25:56.082Z,15.97
2018-03-24T20:28:22.340Z,18.03
2018-03-24T20:30:48.636Z,18.23
2018-03-24T20:33:14.917Z,14.27
2018-03-24T20:35:41.778Z,14.77
2018-03-24T20:38:08.541Z,12.60
2018-03-24T20:40:36.792Z,18.00
2018-03-24T20:43:03.137Z,16.97
2018-03-24T20:45:30.682Z,64.60
2018-03-24T20:47:57.073Z,25.70
2018-03-24T20:50:23.423Z,18.23
2018-03-24T20:52:50.214Z,14.00
2018-03-24T20:55:16.421Z,15.73
2018-03-24T20:57:43.428Z,19.87
2018-03-24T21:00:09.680Z,17.40
2018-03-24T21:02:35.927Z,23.13
2018-03-24T21:05:06.364Z,15.00
2018-03-24T21:07:32.752Z,19.70
2018-03-24T21:09:59.168Z,23.80
2018-03-24T21:12:25.435Z,29.80
2018-03-24T21:14:51.737Z,35.07
2018-03-24T21:17:18.033Z,20.50
2018-03-24T21:19:45.029Z,20.80
2018-03-24T21:22:11.293Z,17.77
2018-03-24T21:24:37.597Z,20.20
2018-03-24T21:27:03.871Z,22.50
2018-03-24T21:29:34.222Z,105.07
2018-03-24T21:32:01.199Z,20.27
2018-03-24T21:34:27.570Z,20.57
2018-03-24T21:36:55.539Z,20.03
2018-03-24T21:39:21.877Z,17.77
2018-03-24T21:41:50.623Z,24.40
2018-03-24T21:44:16.907Z,20.70
2018-03-24T21:46:43.456Z,22.10
2018-03-24T21:49:09.778Z,17.87
2018-03-24T21:51:36.113Z,76.57
2018-03-24T21:54:02.424Z,56.13
2018-03-24T21:56:28.693Z,30.03
2018-03-24T21:58:55.011Z,25.10
2018-03-24T22:01:21.249Z,21.10
2018-03-24T22:03:47.902Z,17.50
2018-03-24T22:06:14.362Z,17.13
2018-03-24T22:08:40.616Z,30.60
2018-03-24T22:11:07.065Z,30.97
2018-03-24T22:13:33.292Z,40.50
2018-03-24T22:15:59.755Z,45.17
2018-03-24T22:18:26.060Z,26.93
2018-03-24T22:20:52.506Z,34.73
2018-03-24T22:23:18.855Z,30.20
2018-03-24T22:25:45.208Z,24.63
2018-03-24T22:28:11.490Z,17.30
2018-03-24T22:30:37.735Z,20.17
2018-03-24T22:33:03.942Z,17.40
2018-03-24T22:35:30.185Z,26.17
2018-03-24T22:37:57.164Z,26.10
2018-03-24T22:40:23.451Z,20.67
2018-03-24T22:42:50.406Z,32.37
2018-03-24T22:45:16.651Z,35.00
2018-03-24T22:47:43.074Z,31.27
2018-03-24T22:50:09.432Z,22.83
2018-03-24T22:52:35.802Z,23.47
2018-03-24T22:55:02.082Z,25.07
2018-03-24T22:57:28.317Z,27.77
2018-03-24T22:59:56.629Z,25.40
2018-03-24T23:02:23.185Z,26.97
2018-03-24T23:04:49.416Z,29.37
2018-03-24T23:07:15.694Z,27.50
2018-03-24T23:09:42.691Z,23.43
2018-03-24T23:12:09.010Z,22.57
2018-03-24T23:14:35.276Z,30.27
2018-03-24T23:17:01.550Z,27.77
2018-03-24T23:19:27.818Z,35.73
2018-03-24T23:21:54.070Z,33.53
2018-03-24T23:24:20.379Z,35.13
2018-03-24T23:26:46.681Z,37.13
2018-03-24T23:29:13.526Z,44.20
2018-03-24T23:31:39.816Z,40.67
2018-03-24T23:34:06.129Z,32.57
2018-03-24T23:36:32.428Z,31.73
2018-03-24T23:38:58.847Z,26.90
2018-03-24T23:41:25.113Z,31.03
2018-03-24T23:43:52.070Z,40.60
2018-03-24T23:46:32.194Z,28.93
2018-03-24T23:48:59.535Z,31.60
2018-03-24T23:51:25.778Z,29.67
2018-03-24T23:53:52.108Z,27.80
2018-03-24T23:56:18.350Z,28.73
2018-03-24T23:58:44.635Z,31.13
